Time;durP1;ratioP1;P1;durP2;ratioP2;P2;SDS_P1;SDS_P2;PMS_P1;PMS_P2;Temp;Humidity;BMP_temperature;BMP_pressure;BME280_temperature;BME280_humidity;BME280_pressure;Samples;Min_cycle;Max_cycle;Signal;HPM_P1;HPM_P2
2022/03/24 00:01:25;;;;;;;10.63;7.50;;;;;;;;;;5050730;28;20078;-76
2022/03/24 00:03:52;;;;;;;12.83;7.10;;;;;;;;;;5053944;28;20464;-76
2022/03/24 00:06:18;;;;;;;9.43;6.67;;;;;;;;;;5073054;28;20024;-76
2022/03/24 00:08:45;;;;;;;12.90;7.60;;;;;;;;;;5073749;28;20028;-76
2022/03/24 00:11:12;;;;;;;12.27;7.53;;;;;;;;;;5073824;28;20081;-75
2022/03/24 00:13:39;;;;;;;19.67;7.20;;;;;;;;;;5071730;28;20483;-76
2022/03/24 00:16:07;;;;;;;9.57;6.90;;;;;;;;;;5068354;28;20020;-76
2022/03/24 00:18:34;;;;;;;12.57;7.27;;;;;;;;;;5066014;28;20020;-77
2022/03/24 00:21:01;;;;;;;12.00;6.80;;;;;;;;;;5048442;28;20125;-78
2022/03/24 00:23:28;;;;;;;9.63;6.50;;;;;;;;;;5048968;28;20033;-77
2022/03/24 00:25:55;;;;;;;8.60;6.70;;;;;;;;;;5052657;28;20052;-77
2022/03/24 00:28:22;;;;;;;10.47;6.67;;;;;;;;;;5054383;28;20024;-78
2022/03/24 00:30:48;;;;;;;8.73;6.03;;;;;;;;;;5053577;28;20021;-77
2022/03/24 00:33:15;;;;;;;15.50;7.67;;;;;;;;;;5053740;28;20029;-78
2022/03/24 00:35:42;;;;;;;14.67;7.07;;;;;;;;;;5052353;28;20043;-77
2022/03/24 00:38:08;;;;;;;10.87;6.87;;;;;;;;;;5064157;28;20082;-77
2022/03/24 00:40:35;;;;;;;10.67;6.47;;;;;;;;;;5068004;28;20036;-79
2022/03/24 00:43:05;;;;;;;9.73;7.10;;;;;;;;;;5068790;28;20044;-78
2022/03/24 00:45:31;;;;;;;8.07;6.17;;;;;;;;;;5069232;28;20054;-78
2022/03/24 00:47:58;;;;;;;12.03;6.93;;;;;;;;;;5073473;28;20031;-78
2022/03/24 00:50:25;;;;;;;14.47;6.47;;;;;;;;;;5071567;28;20540;-79
2022/03/24 00:52:52;;;;;;;11.40;6.20;;;;;;;;;;5060718;28;20053;-78
2022/03/24 00:55:19;;;;;;;8.27;6.27;;;;;;;;;;5053125;28;20071;-79
2022/03/24 00:57:52;;;;;;;8.97;6.97;;;;;;;;;;5052833;28;20433;-79
2022/03/24 01:00:20;;;;;;;11.03;6.63;;;;;;;;;;5047797;28;20115;-79
2022/03/24 01:02:48;;;;;;;9.67;6.27;;;;;;;;;;5047977;28;20033;-78
2022/03/24 01:05:16;;;;;;;8.87;5.67;;;;;;;;;;5068510;28;20028;-78
2022/03/24 01:07:47;;;;;;;12.57;6.47;;;;;;;;;;5068436;28;20024;-78
2022/03/24 01:10:16;;;;;;;10.67;6.50;;;;;;;;;;5073101;28;20020;-79
2022/03/24 01:12:43;;;;;;;10.40;5.80;;;;;;;;;;5073342;28;20024;-78
2022/03/24 01:15:11;;;;;;;10.40;6.70;;;;;;;;;;5073211;28;20020;-78
2022/03/24 01:17:38;;;;;;;12.10;5.80;;;;;;;;;;5063618;28;20116;-77
2022/03/24 01:20:06;;;;;;;8.33;5.87;;;;;;;;;;5051917;28;20071;-78
2022/03/24 01:22:32;;;;;;;10.13;6.13;;;;;;;;;;5047353;28;20524;-78
2022/03/24 01:24:59;;;;;;;10.30;6.90;;;;;;;;;;5047712;28;20025;-78
2022/03/24 01:27:28;;;;;;;8.87;6.10;;;;;;;;;;5047271;28;20021;-78
2022/03/24 01:29:55;;;;;;;7.67;5.83;;;;;;;;;;5047560;28;20051;-78
2022/03/24 01:32:22;;;;;;;9.53;6.00;;;;;;;;;;5064021;28;20033;-78
2022/03/24 01:34:50;;;;;;;9.80;5.37;;;;;;;;;;5072516;28;20082;-78
2022/03/24 01:37:18;;;;;;;11.00;6.33;;;;;;;;;;5072352;28;20031;-78
2022/03/24 01:39:44;;;;;;;7.97;5.43;;;;;;;;;;5072373;28;20032;-78
2022/03/24 01:42:13;;;;;;;11.27;5.90;;;;;;;;;;5072500;28;20024;-78
2022/03/24 01:44:40;;;;;;;11.67;6.17;;;;;;;;;;5064171;28;20435;-78
2022/03/24 01:47:09;;;;;;;9.20;6.53;;;;;;;;;;5047357;28;20033;-78
2022/03/24 01:49:38;;;;;;;9.53;6.27;;;;;;;;;;5047366;28;20147;-79
2022/03/24 01:52:12;;;;;;;9.77;6.57;;;;;;;;;;5047204;28;20025;-78
2022/03/24 01:54:41;;;;;;;11.33;5.93;;;;;;;;;;5054480;28;20017;-79
2022/03/24 01:57:10;;;;;;;11.07;5.93;;;;;;;;;;5068568;28;20095;-78
2022/03/24 01:59:37;;;;;;;11.40;5.90;;;;;;;;;;5068424;28;20400;-78
2022/03/24 02:02:08;;;;;;;8.33;5.73;;;;;;;;;;5052222;28;20045;-79
2022/03/24 02:04:35;;;;;;;8.73;5.80;;;;;;;;;;5051972;28;20108;-79
2022/03/24 02:07:05;;;;;;;9.60;6.50;;;;;;;;;;5046761;28;20025;-78
2022/03/24 02:09:33;;;;;;;9.07;6.20;;;;;;;;;;5046934;28;20032;-79
2022/03/24 02:12:01;;;;;;;10.67;5.53;;;;;;;;;;5045958;28;20024;-77
2022/03/24 02:14:29;;;;;;;7.63;5.23;;;;;;;;;;5046127;28;20036;-74
2022/03/24 02:16:57;;;;;;;8.27;5.60;;;;;;;;;;5052613;28;20024;-74
2022/03/24 02:19:25;;;;;;;12.30;6.10;;;;;;;;;;5053808;28;20053;-73
2022/03/24 02:21:56;;;;;;;15.37;6.30;;;;;;;;;;5051974;28;20021;-73
2022/03/24 02:24:24;;;;;;;10.70;6.17;;;;;;;;;;5051571;28;20048;-73
2022/03/24 02:26:52;;;;;;;9.70;5.63;;;;;;;;;;5051370;28;20082;-73
2022/03/24 02:29:25;;;;;;;10.40;6.17;;;;;;;;;;5046501;28;20074;-73
2022/03/24 02:31:52;;;;;;;13.00;6.43;;;;;;;;;;5045287;28;20357;-74
2022/03/24 02:37:07;;;;;;;10.97;4.97;;;;;;;;;;5046311;28;20031;-74
2022/03/24 02:39:38;;;;;;;8.87;5.77;;;;;;;;;;5051907;28;20052;-74
2022/03/24 02:42:06;;;;;;;8.80;5.37;;;;;;;;;;5051696;28;20035;-73
2022/03/24 02:44:33;;;;;;;11.07;5.97;;;;;;;;;;5056545;28;20043;-74
2022/03/24 02:47:01;;;;;;;7.70;5.37;;;;;;;;;;5068436;28;20107;-73
2022/03/24 02:49:30;;;;;;;9.63;5.23;;;;;;;;;;5053293;28;20017;-74
2022/03/24 02:52:01;;;;;;;9.57;5.87;;;;;;;;;;5069786;28;20028;-74
2022/03/24 02:54:29;;;;;;;10.50;5.97;;;;;;;;;;5070053;28;20028;-73
2022/03/24 02:56:56;;;;;;;9.73;5.00;;;;;;;;;;5060834;28;20056;-74
2022/03/24 02:59:23;;;;;;;15.23;7.73;;;;;;;;;;5061095;28;20481;-74
2022/03/24 03:01:54;;;;;;;13.17;6.90;;;;;;;;;;5074961;28;20021;-74
2022/03/24 03:04:22;;;;;;;11.97;6.63;;;;;;;;;;5074598;28;20021;-73
2022/03/24 03:06:49;;;;;;;9.00;6.13;;;;;;;;;;5074782;28;20055;-73
2022/03/24 03:09:17;;;;;;;10.03;6.30;;;;;;;;;;5074889;28;20434;-74
2022/03/24 03:11:47;;;;;;;12.47;6.77;;;;;;;;;;5074398;28;20048;-74
2022/03/24 03:14:17;;;;;;;11.53;6.43;;;;;;;;;;5069159;28;20021;-73
2022/03/24 03:16:47;;;;;;;10.47;5.70;;;;;;;;;;5030000;28;20083;-74
2022/03/24 03:19:17;;;;;;;13.93;6.30;;;;;;;;;;5068887;28;20379;-73
2022/03/24 03:21:44;;;;;;;13.53;5.37;;;;;;;;;;5069309;28;20519;-73
2022/03/24 03:24:12;;;;;;;8.90;5.80;;;;;;;;;;5063438;28;20048;-73
2022/03/24 03:26:39;;;;;;;12.70;6.20;;;;;;;;;;5054769;28;20036;-74
2022/03/24 03:29:07;;;;;;;14.53;6.23;;;;;;;;;;5070346;28;20031;-73
2022/03/24 03:31:34;;;;;;;18.83;6.20;;;;;;;;;;5054710;28;20025;-73
2022/03/24 03:34:02;;;;;;;9.83;5.70;;;;;;;;;;5055462;28;20052;-73
2022/03/24 03:36:29;;;;;;;10.50;5.67;;;;;;;;;;5048662;28;20476;-73
2022/03/24 03:38:56;;;;;;;11.63;6.30;;;;;;;;;;5049511;28;20053;-73
2022/03/24 03:41:23;;;;;;;12.30;6.83;;;;;;;;;;5049192;28;20040;-73
2022/03/24 03:43:50;;;;;;;11.40;5.90;;;;;;;;;;5050308;28;20028;-73
2022/03/24 03:46:18;;;;;;;9.77;5.80;;;;;;;;;;5060965;28;20020;-73
2022/03/24 03:48:45;;;;;;;10.67;5.80;;;;;;;;;;5074274;28;20032;-73
2022/03/24 03:51:13;;;;;;;15.17;6.40;;;;;;;;;;5056082;28;20031;-73
2022/03/24 03:53:41;;;;;;;12.67;5.77;;;;;;;;;;5053520;28;20079;-73
2022/03/24 03:56:07;;;;;;;10.53;5.87;;;;;;;;;;5054161;28;20125;-73
2022/03/24 03:58:35;;;;;;;11.07;5.90;;;;;;;;;;5059711;28;20028;-73
2022/03/24 04:01:02;;;;;;;13.80;6.97;;;;;;;;;;5068750;28;20029;-73
2022/03/24 04:03:30;;;;;;;14.67;6.40;;;;;;;;;;5065782;28;20429;-73
2022/03/24 04:05:58;;;;;;;17.50;6.47;;;;;;;;;;5051405;28;20040;-73
2022/03/24 04:08:29;;;;;;;11.70;6.30;;;;;;;;;;5052806;28;20025;-73
2022/03/24 04:10:56;;;;;;;10.20;6.40;;;;;;;;;;5056458;28;20033;-73
2022/03/24 04:13:23;;;;;;;11.73;6.00;;;;;;;;;;5063031;28;20107;-73
2022/03/24 04:15:50;;;;;;;12.33;6.07;;;;;;;;;;5057174;28;20033;-72
2022/03/24 04:18:18;;;;;;;13.83;7.03;;;;;;;;;;5055282;28;20484;-74
2022/03/24 04:20:45;;;;;;;10.70;5.87;;;;;;;;;;5049030;28;20056;-72
2022/03/24 04:23:12;;;;;;;9.17;5.43;;;;;;;;;;5048672;28;20031;-74
2022/03/24 04:25:39;;;;;;;9.10;4.63;;;;;;;;;;5048177;28;20495;-77
2022/03/24 04:28:06;;;;;;;10.77;5.83;;;;;;;;;;5063671;28;20025;-76
2022/03/24 04:30:34;;;;;;;10.30;5.50;;;;;;;;;;5057140;28;20494;-77
2022/03/24 04:33:00;;;;;;;9.67;5.70;;;;;;;;;;5064164;28;20035;-73
2022/03/24 04:35:27;;;;;;;14.60;6.20;;;;;;;;;;5056039;28;20476;-72
2022/03/24 04:37:54;;;;;;;9.73;5.73;;;;;;;;;;5053366;28;20092;-71
2022/03/24 04:40:21;;;;;;;8.87;5.33;;;;;;;;;;5053343;28;20058;-73
2022/03/24 04:42:51;;;;;;;13.87;5.67;;;;;;;;;;5049037;28;20021;-72
2022/03/24 04:45:19;;;;;;;10.50;5.67;;;;;;;;;;5048478;28;20033;-72
2022/03/24 04:47:47;;;;;;;10.57;5.13;;;;;;;;;;5048202;28;20017;-72
2022/03/24 04:50:14;;;;;;;13.27;6.23;;;;;;;;;;5048064;28;20481;-72
2022/03/24 04:52:41;;;;;;;10.50;6.27;;;;;;;;;;5068597;28;20029;-72
2022/03/24 04:55:08;;;;;;;10.00;5.60;;;;;;;;;;5064776;28;20024;-72
2022/03/24 04:57:35;;;;;;;7.47;4.93;;;;;;;;;;5052678;28;20431;-72
2022/03/24 05:00:03;;;;;;;10.10;5.60;;;;;;;;;;5053015;28;20029;-72
2022/03/24 05:02:30;;;;;;;9.67;5.17;;;;;;;;;;5055693;28;20025;-72
2022/03/24 05:04:57;;;;;;;10.57;5.23;;;;;;;;;;5068921;28;20031;-72
2022/03/24 05:07:24;;;;;;;12.27;5.43;;;;;;;;;;5067115;28;20039;-71
2022/03/24 05:09:53;;;;;;;11.77;5.17;;;;;;;;;;5067486;28;20491;-72
2022/03/24 05:12:19;;;;;;;7.37;5.00;;;;;;;;;;5051024;28;20078;-72
2022/03/24 05:14:47;;;;;;;12.37;6.13;;;;;;;;;;5062757;28;20436;-76
2022/03/24 05:17:13;;;;;;;9.87;5.67;;;;;;;;;;5052706;28;20448;-72
2022/03/24 05:19:41;;;;;;;12.53;5.80;;;;;;;;;;5061358;28;20032;-72
2022/03/24 05:22:08;;;;;;;8.57;4.77;;;;;;;;;;5072453;28;20039;-73
2022/03/24 05:24:34;;;;;;;10.73;4.47;;;;;;;;;;5071990;28;20037;-73
2022/03/24 05:27:01;;;;;;;11.50;5.33;;;;;;;;;;5051710;28;20752;-73
2022/03/24 05:29:28;;;;;;;10.87;5.93;;;;;;;;;;5067197;28;20020;-73
2022/03/24 05:31:55;;;;;;;10.83;5.90;;;;;;;;;;5067386;28;20458;-74
2022/03/24 05:34:21;;;;;;;9.90;4.43;;;;;;;;;;5049701;28;20029;-73
2022/03/24 05:36:48;;;;;;;8.77;4.87;;;;;;;;;;5042689;28;20504;-74
2022/03/24 05:39:15;;;;;;;11.77;6.10;;;;;;;;;;5036962;28;20025;-72
2022/03/24 05:41:41;;;;;;;9.17;5.57;;;;;;;;;;5040352;28;20017;-73
2022/03/24 05:44:08;;;;;;;13.97;6.47;;;;;;;;;;5043218;28;20103;-73
2022/03/24 05:46:41;;;;;;;9.57;5.43;;;;;;;;;;5054392;28;20024;-71
2022/03/24 05:49:09;;;;;;;14.00;5.83;;;;;;;;;;5069505;28;20035;-71
2022/03/24 05:51:36;;;;;;;11.27;5.93;;;;;;;;;;5055305;28;20104;-71
2022/03/24 05:54:03;;;;;;;9.33;5.57;;;;;;;;;;5046882;28;20111;-71
2022/03/24 05:56:30;;;;;;;11.43;5.93;;;;;;;;;;5047040;28;20074;-71
2022/03/24 05:58:57;;;;;;;9.67;5.90;;;;;;;;;;5048611;28;20032;-71
2022/03/24 06:01:26;;;;;;;14.40;5.47;;;;;;;;;;5054039;28;20472;-71
2022/03/24 06:03:53;;;;;;;10.13;6.43;;;;;;;;;;5054582;28;20055;-71
2022/03/24 06:06:22;;;;;;;12.17;5.93;;;;;;;;;;5058682;28;20028;-72
2022/03/24 06:08:52;;;;;;;9.97;5.57;;;;;;;;;;5070649;28;20029;-72
2022/03/24 06:11:20;;;;;;;9.03;5.67;;;;;;;;;;5068077;28;20028;-72
2022/03/24 06:13:46;;;;;;;12.90;6.30;;;;;;;;;;5066447;28;20357;-72
2022/03/24 06:16:16;;;;;;;8.97;5.23;;;;;;;;;;5065997;28;20106;-71
2022/03/24 06:18:43;;;;;;;13.13;6.73;;;;;;;;;;5063705;28;20582;-71
2022/03/24 06:21:10;;;;;;;11.17;6.10;;;;;;;;;;5068366;28;20085;-71
2022/03/24 06:23:36;;;;;;;11.53;5.70;;;;;;;;;;5061523;28;20031;-71
2022/03/24 06:26:03;;;;;;;9.80;5.90;;;;;;;;;;5055878;28;20055;-71
2022/03/24 06:28:30;;;;;;;9.57;5.30;;;;;;;;;;5056641;28;20025;-71
2022/03/24 06:30:57;;;;;;;9.60;5.60;;;;;;;;;;5055811;28;20021;-71
2022/03/24 06:33:24;;;;;;;11.87;5.50;;;;;;;;;;5063763;28;20102;-72
2022/03/24 06:35:50;;;;;;;12.50;5.87;;;;;;;;;;5050396;28;20044;-72
2022/03/24 06:38:18;;;;;;;12.13;5.50;;;;;;;;;;5056839;28;20024;-72
2022/03/24 06:40:44;;;;;;;9.47;5.90;;;;;;;;;;5067579;28;20032;-71
2022/03/24 06:43:11;;;;;;;7.80;4.97;;;;;;;;;;5051983;28;20021;-72
2022/03/24 06:45:38;;;;;;;7.87;4.80;;;;;;;;;;5059611;28;20439;-71
2022/03/24 06:48:07;;;;;;;8.73;5.67;;;;;;;;;;5070525;28;20017;-72
2022/03/24 06:50:34;;;;;;;9.03;5.77;;;;;;;;;;5055466;28;20027;-71
2022/03/24 06:53:01;;;;;;;11.27;5.97;;;;;;;;;;5055427;28;20057;-71
2022/03/24 06:55:28;;;;;;;7.73;4.90;;;;;;;;;;5053280;28;20100;-72
2022/03/24 06:57:55;;;;;;;9.30;6.23;;;;;;;;;;5053317;28;20013;-71
2022/03/24 07:00:22;;;;;;;7.30;5.10;;;;;;;;;;5069734;28;20032;-71
2022/03/24 07:02:48;;;;;;;11.90;5.87;;;;;;;;;;5069559;28;20033;-71
2022/03/24 07:05:15;;;;;;;12.13;5.50;;;;;;;;;;5057824;28;20476;-71
2022/03/24 07:07:43;;;;;;;8.60;5.00;;;;;;;;;;5072613;28;20046;-71
2022/03/24 07:10:10;;;;;;;11.83;5.27;;;;;;;;;;5070504;28;20036;-71
2022/03/24 07:12:37;;;;;;;10.13;5.40;;;;;;;;;;5054908;28;20029;-72
2022/03/24 07:15:08;;;;;;;9.23;5.57;;;;;;;;;;5054895;28;20037;-71
2022/03/24 07:17:35;;;;;;;9.10;5.63;;;;;;;;;;5053628;28;20021;-71
2022/03/24 07:20:03;;;;;;;10.40;6.23;;;;;;;;;;5061785;28;20044;-72
2022/03/24 07:22:37;;;;;;;9.13;5.23;;;;;;;;;;5069313;28;20121;-71
2022/03/24 07:25:06;;;;;;;8.07;5.37;;;;;;;;;;5069322;28;20029;-72
2022/03/24 07:27:34;;;;;;;10.77;5.87;;;;;;;;;;5070492;28;20083;-71
2022/03/24 07:30:01;;;;;;;10.53;5.07;;;;;;;;;;5074042;28;20028;-72
2022/03/24 07:32:27;;;;;;;8.83;5.53;;;;;;;;;;5074793;28;20020;-71
2022/03/24 07:34:54;;;;;;;10.40;6.10;;;;;;;;;;5061468;28;20029;-71
2022/03/24 07:37:21;;;;;;;14.47;5.60;;;;;;;;;;5054466;28;20021;-71
2022/03/24 07:39:48;;;;;;;10.43;5.70;;;;;;;;;;5053272;28;20044;-71
2022/03/24 07:42:15;;;;;;;9.73;5.97;;;;;;;;;;5064859;28;20115;-71
2022/03/24 07:44:42;;;;;;;8.00;5.03;;;;;;;;;;5068390;28;20177;-72
2022/03/24 07:47:09;;;;;;;8.93;5.80;;;;;;;;;;5052819;28;20041;-71
2022/03/24 07:49:35;;;;;;;13.23;5.80;;;;;;;;;;5049333;28;20453;-72
2022/03/24 07:52:03;;;;;;;12.43;6.23;;;;;;;;;;5071411;28;20124;-72
2022/03/24 07:54:45;;;;;;;13.10;6.30;;;;;;;;;;5073972;28;20062;-72
2022/03/24 07:57:12;;;;;;;7.57;4.87;;;;;;;;;;5073921;28;20028;-72
2022/03/24 07:59:38;;;;;;;12.30;5.40;;;;;;;;;;5073733;28;20467;-71
2022/03/24 08:02:07;;;;;;;8.63;5.43;;;;;;;;;;5072543;28;20055;-71
2022/03/24 08:04:34;;;;;;;8.53;5.60;;;;;;;;;;5068235;28;20024;-72
2022/03/24 08:07:00;;;;;;;9.23;4.93;;;;;;;;;;5060771;28;20052;-72
2022/03/24 08:09:27;;;;;;;8.60;5.47;;;;;;;;;;5064630;28;20033;-71
2022/03/24 08:11:54;;;;;;;9.93;5.70;;;;;;;;;;5052117;28;20028;-71
2022/03/24 08:14:20;;;;;;;9.30;5.83;;;;;;;;;;5073490;28;20376;-72
2022/03/24 08:16:47;;;;;;;12.93;6.33;;;;;;;;;;5073607;28;20081;-71
2022/03/24 08:19:14;;;;;;;12.20;5.40;;;;;;;;;;5061025;28;20021;-71
2022/03/24 08:21:42;;;;;;;10.70;5.40;;;;;;;;;;5053234;28;20029;-72
2022/03/24 08:24:09;;;;;;;12.77;5.50;;;;;;;;;;5060191;28;20032;-71
2022/03/24 08:26:37;;;;;;;11.67;6.00;;;;;;;;;;5067938;28;20376;-72
2022/03/24 08:29:04;;;;;;;8.07;5.37;;;;;;;;;;5068049;28;20035;-72
2022/03/24 08:31:33;;;;;;;9.23;5.60;;;;;;;;;;5053760;28;20029;-71
2022/03/24 08:33:59;;;;;;;11.20;7.50;;;;;;;;;;5049309;28;20029;-72
2022/03/24 08:36:26;;;;;;;8.80;5.43;;;;;;;;;;5072307;28;20027;-72
2022/03/24 08:38:53;;;;;;;7.90;4.80;;;;;;;;;;5069986;28;20043;-72
2022/03/24 08:41:19;;;;;;;8.87;4.83;;;;;;;;;;5053333;28;20040;-71
2022/03/24 08:43:46;;;;;;;9.30;5.70;;;;;;;;;;5060399;28;20515;-71
2022/03/24 08:46:13;;;;;;;9.93;5.77;;;;;;;;;;5071991;28;20027;-71
2022/03/24 08:48:39;;;;;;;9.33;6.13;;;;;;;;;;5055723;28;20056;-71
2022/03/24 08:51:06;;;;;;;9.77;6.10;;;;;;;;;;5048225;28;20078;-71
2022/03/24 08:53:33;;;;;;;8.63;5.73;;;;;;;;;;5047796;28;20021;-71
2022/03/24 08:56:00;;;;;;;11.13;6.17;;;;;;;;;;5057302;28;20491;-71
2022/03/24 08:58:26;;;;;;;8.27;5.50;;;;;;;;;;5055724;28;20036;-72
2022/03/24 09:00:53;;;;;;;8.30;5.27;;;;;;;;;;5052848;28;20120;-71
2022/03/24 09:03:20;;;;;;;11.50;5.03;;;;;;;;;;5052713;28;20384;-71
2022/03/24 09:05:46;;;;;;;12.63;6.70;;;;;;;;;;5052934;28;20029;-71
2022/03/24 09:08:13;;;;;;;11.33;6.20;;;;;;;;;;5052860;28;20032;-71
2022/03/24 09:10:40;;;;;;;11.13;5.60;;;;;;;;;;5058865;28;20028;-72
2022/03/24 09:13:07;;;;;;;8.60;5.93;;;;;;;;;;5064211;28;20119;-72
2022/03/24 09:15:34;;;;;;;8.43;4.97;;;;;;;;;;5054563;28;20025;-71
2022/03/24 09:18:01;;;;;;;7.07;4.70;;;;;;;;;;5067146;28;20021;-72
2022/03/24 09:20:27;;;;;;;9.07;5.23;;;;;;;;;;5055168;28;20045;-72
2022/03/24 09:22:54;;;;;;;9.63;5.33;;;;;;;;;;5032932;28;20026;-71
2022/03/24 09:25:23;;;;;;;9.70;5.80;;;;;;;;;;5046317;28;20074;-72
2022/03/24 09:27:49;;;;;;;11.53;5.37;;;;;;;;;;5057423;28;20028;-71
2022/03/24 09:30:18;;;;;;;9.53;6.20;;;;;;;;;;5070751;28;20040;-71
2022/03/24 09:32:45;;;;;;;8.07;5.40;;;;;;;;;;5067851;28;20503;-72
2022/03/24 09:35:12;;;;;;;9.37;5.67;;;;;;;;;;5067071;28;20028;-71
2022/03/24 09:37:39;;;;;;;9.63;6.10;;;;;;;;;;5067069;28;20048;-71
2022/03/24 09:40:07;;;;;;;8.20;5.23;;;;;;;;;;5055260;28;20484;-71
2022/03/24 09:42:34;;;;;;;9.77;5.63;;;;;;;;;;5050640;28;20025;-71
2022/03/24 09:45:02;;;;;;;8.67;4.50;;;;;;;;;;5052160;28;20040;-71
2022/03/24 09:47:29;;;;;;;9.00;5.57;;;;;;;;;;5066685;28;20032;-71
2022/03/24 09:49:56;;;;;;;9.60;5.63;;;;;;;;;;5071889;28;20107;-72
2022/03/24 09:52:24;;;;;;;7.50;5.00;;;;;;;;;;5071984;28;20024;-71
2022/03/24 09:54:51;;;;;;;7.47;4.87;;;;;;;;;;5067379;28;20118;-71
2022/03/24 09:57:18;;;;;;;13.20;7.27;;;;;;;;;;5066389;28;20024;-71
2022/03/24 09:59:45;;;;;;;8.67;5.53;;;;;;;;;;5066502;28;20048;-71
2022/03/24 10:02:12;;;;;;;8.60;5.10;;;;;;;;;;5060551;28;20083;-71
2022/03/24 10:04:53;;;;;;;9.97;6.40;;;;;;;;;;5050371;28;20022;-71
2022/03/24 10:07:23;;;;;;;11.70;5.70;;;;;;;;;;5052087;28;20082;-71
2022/03/24 10:09:50;;;;;;;9.13;6.37;;;;;;;;;;5051449;28;20021;-71
2022/03/24 10:12:21;;;;;;;8.27;5.10;;;;;;;;;;5051974;28;20017;-71
2022/03/24 10:15:07;;;;;;;10.40;6.43;;;;;;;;;;5052030;28;20556;-71
2022/03/24 10:17:34;;;;;;;8.83;5.83;;;;;;;;;;5046787;28;20149;-72
2022/03/24 10:20:05;;;;;;;9.93;6.13;;;;;;;;;;5064839;28;20036;-71
2022/03/24 10:22:32;;;;;;;9.77;6.23;;;;;;;;;;5066368;28;20036;-71
2022/03/24 10:24:59;;;;;;;9.73;5.93;;;;;;;;;;5064374;28;20028;-71
2022/03/24 10:27:27;;;;;;;9.37;6.07;;;;;;;;;;5051151;28;20463;-71
2022/03/24 10:29:59;;;;;;;9.87;5.63;;;;;;;;;;5064510;28;20050;-71
2022/03/24 10:32:33;;;;;;;11.33;5.90;;;;;;;;;;5054814;28;20040;-71
2022/03/24 10:35:11;;;;;;;10.00;5.15;;;;;;;;;;5071342;28;20110;-71
2022/03/24 10:37:38;;;;;;;9.20;6.00;;;;;;;;;;5071116;28;20021;-71
2022/03/24 10:40:08;;;;;;;13.77;6.60;;;;;;;;;;5066375;28;20047;-72
2022/03/24 10:42:36;;;;;;;9.37;6.23;;;;;;;;;;5066384;28;20067;-72
2022/03/24 10:45:12;;;;;;;8.47;6.53;;;;;;;;;;5064396;28;20063;-71
2022/03/24 10:47:40;;;;;;;9.87;6.00;;;;;;;;;;5046920;28;20092;-71
2022/03/24 10:50:22;;;;;;;9.87;6.80;;;;;;;;;;5070577;28;20019;-72
2022/03/24 10:52:49;;;;;;;10.13;6.33;;;;;;;;;;5070891;28;20468;-72
2022/03/24 10:55:22;;;;;;;9.30;5.67;;;;;;;;;;5071287;28;20547;-71
2022/03/24 10:57:49;;;;;;;11.50;6.70;;;;;;;;;;5071622;28;20036;-71
2022/03/24 11:00:15;;;;;;;10.33;6.03;;;;;;;;;;5051422;28;20518;-72
2022/03/24 11:02:42;;;;;;;7.87;4.90;;;;;;;;;;5046025;28;20083;-71
2022/03/24 11:05:12;;;;;;;9.30;5.67;;;;;;;;;;5033988;28;20442;-71
2022/03/24 11:07:39;;;;;;;9.37;5.73;;;;;;;;;;5066047;28;20044;-71
2022/03/24 11:10:13;;;;;;;11.73;7.13;;;;;;;;;;5056760;28;20029;-71
2022/03/24 11:12:39;;;;;;;8.00;6.10;;;;;;;;;;5054945;28;20361;-71
2022/03/24 11:15:07;;;;;;;7.67;5.80;;;;;;;;;;5055086;28;20017;-71
2022/03/24 11:17:35;;;;;;;9.03;6.27;;;;;;;;;;5055086;28;20031;-71
2022/03/24 11:20:04;;;;;;;11.37;5.63;;;;;;;;;;5060654;28;20032;-72
2022/03/24 11:22:40;;;;;;;8.90;6.00;;;;;;;;;;5070783;28;20471;-72
2022/03/24 11:25:08;;;;;;;11.23;6.63;;;;;;;;;;5049273;28;20037;-72
2022/03/24 11:27:35;;;;;;;13.10;5.70;;;;;;;;;;5049647;28;20025;-71
2022/03/24 11:30:02;;;;;;;9.13;6.73;;;;;;;;;;5049557;28;20017;-71
2022/03/24 11:32:29;;;;;;;9.77;6.30;;;;;;;;;;5050408;28;20464;-71
2022/03/24 11:34:56;;;;;;;8.60;5.80;;;;;;;;;;5054609;28;20035;-71
2022/03/24 11:37:23;;;;;;;10.30;6.40;;;;;;;;;;5054921;28;20033;-71
2022/03/24 11:40:02;;;;;;;11.57;6.77;;;;;;;;;;5054541;28;20037;-72
2022/03/24 11:42:29;;;;;;;10.13;6.27;;;;;;;;;;5074533;28;20028;-71
2022/03/24 11:45:01;;;;;;;7.83;5.23;;;;;;;;;;5073003;28;20031;-71
2022/03/24 11:47:35;;;;;;;8.00;5.83;;;;;;;;;;5068990;28;20024;-72
2022/03/24 11:50:09;;;;;;;10.40;5.67;;;;;;;;;;5051894;28;20104;-71
2022/03/24 11:52:36;;;;;;;9.40;6.67;;;;;;;;;;5049073;28;20082;-71
2022/03/24 11:55:03;;;;;;;8.83;6.70;;;;;;;;;;5062909;28;20032;-71
2022/03/24 11:57:36;;;;;;;9.33;6.77;;;;;;;;;;5073572;28;20052;-72
2022/03/24 12:00:15;;;;;;;11.03;7.10;;;;;;;;;;5038836;28;20040;-71
2022/03/24 12:02:45;;;;;;;8.90;6.47;;;;;;;;;;5053875;28;20032;-71
2022/03/24 12:05:13;;;;;;;8.47;5.63;;;;;;;;;;5054129;28;20032;-71
2022/03/24 12:07:40;;;;;;;10.77;6.87;;;;;;;;;;5052184;28;20392;-72
2022/03/24 12:10:14;;;;;;;11.73;6.27;;;;;;;;;;5068190;28;20037;-71
2022/03/24 12:13:00;;;;;;;8.93;5.90;;;;;;;;;;5068442;28;20031;-71
2022/03/24 12:15:27;;;;;;;8.30;5.07;;;;;;;;;;5068245;28;20456;-71
2022/03/24 12:18:04;;;;;;;15.93;6.63;;;;;;;;;;5068610;28;21859;-71
2022/03/24 12:20:40;;;;;;;9.40;6.30;;;;;;;;;;5060829;28;20063;-71
2022/03/24 12:23:06;;;;;;;10.47;6.93;;;;;;;;;;5072438;28;20032;-71
2022/03/24 12:25:34;;;;;;;13.60;6.70;;;;;;;;;;5056213;28;20094;-72
2022/03/24 12:28:03;;;;;;;8.53;5.70;;;;;;;;;;5056960;28;20035;-71
2022/03/24 12:30:50;;;;;;;9.90;6.10;;;;;;;;;;5069736;28;20767;-71
2022/03/24 12:33:18;;;;;;;10.40;6.43;;;;;;;;;;5053803;28;20558;-71
2022/03/24 12:35:48;;;;;;;10.30;6.73;;;;;;;;;;5048481;28;20423;-71
2022/03/24 12:38:32;;;;;;;10.60;6.77;;;;;;;;;;5052880;28;20028;-71
2022/03/24 12:41:20;;;;;;;9.13;6.27;;;;;;;;;;5072060;28;20491;-71
2022/03/24 12:43:51;;;;;;;11.03;6.17;;;;;;;;;;5072396;28;20472;-71
2022/03/24 12:46:21;;;;;;;15.10;8.03;;;;;;;;;;5073362;28;20040;-71
2022/03/24 12:48:47;;;;;;;11.93;7.97;;;;;;;;;;5063612;28;20467;-72
2022/03/24 12:51:24;;;;;;;12.80;6.83;;;;;;;;;;5068991;28;20110;-71
2022/03/24 12:53:56;;;;;;;11.20;6.50;;;;;;;;;;5050223;28;20379;-71
2022/03/24 12:56:26;;;;;;;11.07;7.10;;;;;;;;;;5047921;28;20032;-71
2022/03/24 12:58:54;;;;;;;15.00;7.40;;;;;;;;;;5048375;28;20364;-71
2022/03/24 13:01:21;;;;;;;13.93;8.10;;;;;;;;;;5047562;28;20044;-71
2022/03/24 13:03:54;;;;;;;9.83;6.70;;;;;;;;;;5054195;28;20029;-71
2022/03/24 13:06:22;;;;;;;9.87;6.73;;;;;;;;;;5072166;28;20021;-71
2022/03/24 13:09:06;;;;;;;10.60;6.60;;;;;;;;;;5057393;28;20024;-72
2022/03/24 13:11:48;;;;;;;8.90;6.07;;;;;;;;;;5052957;28;20478;-72
2022/03/24 13:14:18;;;;;;;12.33;7.33;;;;;;;;;;5050380;28;20020;-71
2022/03/24 13:17:05;;;;;;;13.03;7.77;;;;;;;;;;5047395;28;20024;-71
2022/03/24 13:19:33;;;;;;;12.03;7.07;;;;;;;;;;5043995;28;20054;-71
2022/03/24 13:22:11;;;;;;;12.10;7.50;;;;;;;;;;5067747;28;20372;-71
2022/03/24 13:24:38;;;;;;;13.13;7.73;;;;;;;;;;5050568;28;20106;-71
2022/03/24 13:27:05;;;;;;;9.33;6.37;;;;;;;;;;5052428;28;20025;-72
2022/03/24 13:29:38;;;;;;;14.47;7.57;;;;;;;;;;5071988;28;20024;-71
2022/03/24 13:32:09;;;;;;;13.53;7.57;;;;;;;;;;5071883;28;20024;-71
2022/03/24 13:34:36;;;;;;;12.07;7.97;;;;;;;;;;5071827;28;20379;-71
2022/03/24 13:37:19;;;;;;;11.30;7.87;;;;;;;;;;5068802;28;20034;-71
2022/03/24 13:39:56;;;;;;;12.17;8.03;;;;;;;;;;5037529;28;20017;-71
2022/03/24 13:42:23;;;;;;;15.70;8.83;;;;;;;;;;5047119;28;20637;-71
2022/03/24 13:44:51;;;;;;;16.60;9.93;;;;;;;;;;5056163;28;20065;-71
2022/03/24 13:47:20;;;;;;;16.67;10.63;;;;;;;;;;5059762;28;20016;-71
2022/03/24 13:49:47;;;;;;;13.77;8.90;;;;;;;;;;5071964;28;20024;-71
2022/03/24 13:52:52;;;;;;;15.90;9.63;;;;;;;;;;5062645;28;20029;-71
2022/03/24 13:55:20;;;;;;;14.70;9.37;;;;;;;;;;4990148;28;20481;-71
2022/03/24 13:57:51;;;;;;;15.77;9.23;;;;;;;;;;5025083;28;20064;-71
2022/03/24 14:00:45;;;;;;;11.30;7.40;;;;;;;;;;5050614;28;20035;-71
2022/03/24 14:03:13;;;;;;;15.40;9.07;;;;;;;;;;5047496;28;20040;-73
2022/03/24 14:05:47;;;;;;;15.37;9.00;;;;;;;;;;5050784;28;20118;-72
2022/03/24 14:08:19;;;;;;;22.67;11.57;;;;;;;;;;5065916;28;20395;-72
2022/03/24 14:10:47;;;;;;;20.77;9.50;;;;;;;;;;5071763;28;20033;-72
2022/03/24 14:13:14;;;;;;;16.37;9.27;;;;;;;;;;5072008;28;20028;-72
2022/03/24 14:15:42;;;;;;;15.13;8.23;;;;;;;;;;5071293;28;20016;-73
2022/03/24 14:18:16;;;;;;;12.37;8.27;;;;;;;;;;5058051;28;20032;-72
2022/03/24 14:20:46;;;;;;;14.17;7.80;;;;;;;;;;5062931;28;20126;-72
2022/03/24 14:23:26;;;;;;;13.80;8.43;;;;;;;;;;5058670;28;20748;-72
2022/03/24 14:25:53;;;;;;;18.57;9.83;;;;;;;;;;5052226;28;20025;-73
2022/03/24 14:28:33;;;;;;;14.53;8.77;;;;;;;;;;5062962;28;20041;-72
2022/03/24 14:30:59;;;;;;;11.97;8.23;;;;;;;;;;5048486;28;20055;-72
2022/03/24 14:33:26;;;;;;;11.50;7.63;;;;;;;;;;5069385;28;20404;-72
2022/03/24 14:35:57;;;;;;;11.63;7.70;;;;;;;;;;5070424;28;20048;-72
2022/03/24 14:38:23;;;;;;;11.90;8.53;;;;;;;;;;5052357;28;20025;-73
2022/03/24 14:40:50;;;;;;;15.07;7.23;;;;;;;;;;5051623;28;20051;-73
2022/03/24 14:43:22;;;;;;;13.73;7.77;;;;;;;;;;5049412;28;20555;-72
2022/03/24 14:45:49;;;;;;;14.10;7.83;;;;;;;;;;5048591;28;20036;-72
2022/03/24 14:48:16;;;;;;;19.03;7.57;;;;;;;;;;5062531;28;20380;-72